createdAt,value
2024-02-14T00:00:04.823Z,83.10
2024-02-14T00:02:31.517Z,83.17
2024-02-14T00:04:58.093Z,83.28
2024-02-14T00:07:24.614Z,83.79
2024-02-14T00:09:51.169Z,84.12
2024-02-14T00:12:17.776Z,84.37
2024-02-14T00:14:44.541Z,84.09
2024-02-14T00:17:11.696Z,84.30
2024-02-14T00:19:38.450Z,84.02
2024-02-14T00:22:04.981Z,84.12
2024-02-14T00:24:32.140Z,83.89
2024-02-14T00:26:59.209Z,84.06
2024-02-14T00:29:25.820Z,83.97
2024-02-14T00:31:52.453Z,84.30
2024-02-14T00:34:19.188Z,84.44
2024-02-14T00:36:45.808Z,83.96
2024-02-14T00:39:12.386Z,84.35
2024-02-14T00:41:38.985Z,84.52
2024-02-14T00:44:05.713Z,84.74
2024-02-14T00:46:32.405Z,84.67
2024-02-14T00:48:59.268Z,84.71
2024-02-14T00:51:26.138Z,85.29
2024-02-14T00:53:53.504Z,85.39
2024-02-14T00:56:20.390Z,86.05
2024-02-14T00:58:46.965Z,86.30
2024-02-14T01:01:13.731Z,86.29
2024-02-14T01:03:40.338Z,86.20
2024-02-14T01:06:07.089Z,86.74
2024-02-14T01:08:34.956Z,87.18
2024-02-14T01:11:01.668Z,87.62
2024-02-14T01:13:28.308Z,87.73
2024-02-14T01:15:54.838Z,87.61
2024-02-14T01:18:21.488Z,87.97
2024-02-14T01:20:48.211Z,87.81
2024-02-14T01:23:14.774Z,87.92
2024-02-14T01:25:43.231Z,88.53
2024-02-14T01:28:09.987Z,87.80
2024-02-14T01:30:37.141Z,88.06
2024-02-14T01:33:07.027Z,88.30
2024-02-14T01:35:33.846Z,88.78
2024-02-14T01:38:00.509Z,88.87
2024-02-14T01:40:27.042Z,89.17
2024-02-14T01:42:53.692Z,89.48
2024-02-14T01:45:20.837Z,89.63
2024-02-14T01:47:47.726Z,89.51
2024-02-14T01:50:14.489Z,89.75
2024-02-14T01:52:42.117Z,89.77
2024-02-14T01:55:09.738Z,89.73
2024-02-14T01:57:38.588Z,89.89
2024-02-14T02:00:09.624Z,89.92
2024-02-14T02:02:41.320Z,89.78
2024-02-14T02:05:08.114Z,90.16
2024-02-14T02:07:35.102Z,90.07
2024-02-14T02:10:01.810Z,90.15
2024-02-14T02:12:28.854Z,89.96
2024-02-14T02:14:55.590Z,90.00
2024-02-14T02:17:22.251Z,90.00
2024-02-14T02:19:48.953Z,90.21
2024-02-14T02:22:15.570Z,90.15
2024-02-14T02:24:42.259Z,90.32
2024-02-14T02:27:09.243Z,90.15
2024-02-14T02:29:35.898Z,90.21
2024-02-14T02:32:02.654Z,90.31
2024-02-14T02:34:29.422Z,90.40
2024-02-14T02:36:56.248Z,90.38
2024-02-14T02:39:22.775Z,90.60
2024-02-14T02:41:51.394Z,90.49
2024-02-14T02:44:18.159Z,90.81
2024-02-14T02:46:47.142Z,91.06
2024-02-14T02:49:15.344Z,91.22
2024-02-14T02:51:42.048Z,91.44
2024-02-14T02:54:09.811Z,91.90
2024-02-14T02:56:36.433Z,91.85
2024-02-14T02:59:04.550Z,92.10
2024-02-14T03:01:39.377Z,91.78
2024-02-14T03:04:06.249Z,92.14
2024-02-14T03:06:33.071Z,92.96
2024-02-14T03:09:00.162Z,94.73
2024-02-14T03:11:28.025Z,96.33
2024-02-14T03:13:54.658Z,96.09
2024-02-14T03:16:21.387Z,95.34
2024-02-14T03:18:48.126Z,95.68
2024-02-14T03:21:14.767Z,95.48
2024-02-14T03:23:42.413Z,95.44
2024-02-14T03:26:10.300Z,95.14
2024-02-14T03:28:36.853Z,95.28
2024-02-14T03:31:03.669Z,95.27
2024-02-14T03:33:30.613Z,95.42
2024-02-14T03:35:57.289Z,95.18
2024-02-14T03:38:27.903Z,95.38
2024-02-14T03:40:55.338Z,95.36
2024-02-14T03:43:24.635Z,95.42
2024-02-14T03:45:52.840Z,95.60
2024-02-14T03:48:19.538Z,95.62
2024-02-14T03:50:46.199Z,95.56
2024-02-14T03:53:12.804Z,95.95
2024-02-14T03:55:39.373Z,96.13
2024-02-14T03:58:07.541Z,96.31
2024-02-14T04:00:34.778Z,96.08
2024-02-14T04:03:01.522Z,96.73
2024-02-14T04:05:30.982Z,96.91
2024-02-14T04:07:57.650Z,96.88
2024-02-14T04:10:25.176Z,97.34
2024-02-14T04:12:51.797Z,97.46
2024-02-14T04:15:18.709Z,97.80
2024-02-14T04:17:45.418Z,97.78
2024-02-14T04:20:12.228Z,97.68
2024-02-14T04:22:38.949Z,97.55
2024-02-14T04:25:05.950Z,97.63
2024-02-14T04:27:32.511Z,97.53
2024-02-14T04:29:59.414Z,97.29
2024-02-14T04:32:26.319Z,97.19
2024-02-14T04:34:53.136Z,97.32
2024-02-14T04:37:20.817Z,97.14
2024-02-14T04:39:47.888Z,97.01
2024-02-14T04:42:14.553Z,96.97
2024-02-14T04:44:41.148Z,96.83
2024-02-14T04:47:10.782Z,96.74
2024-02-14T04:49:38.088Z,96.65
2024-02-14T04:52:05.575Z,96.91
2024-02-14T04:54:32.101Z,96.85
2024-02-14T04:57:01.802Z,96.71
2024-02-14T04:59:29.837Z,97.41
2024-02-14T05:01:57.518Z,97.33
2024-02-14T05:04:24.301Z,98.17
2024-02-14T05:06:52.251Z,99.81
2024-02-14T05:09:21.352Z,100.00
2024-02-14T05:11:47.991Z,100.00
2024-02-14T05:14:14.594Z,100.00
2024-02-14T05:16:41.781Z,100.00
2024-02-14T05:19:08.390Z,100.00
2024-02-14T05:21:35.047Z,100.00
2024-02-14T05:24:01.776Z,100.00
2024-02-14T05:26:28.383Z,100.00
2024-02-14T05:28:55.093Z,100.00
2024-02-14T05:31:21.836Z,100.00
2024-02-14T05:33:48.591Z,100.00
2024-02-14T05:36:15.317Z,100.00
2024-02-14T05:38:41.902Z,100.00
2024-02-14T05:41:09.020Z,100.00
2024-02-14T05:43:35.866Z,100.00
2024-02-14T05:46:02.525Z,100.00
2024-02-14T05:48:29.383Z,100.00
2024-02-14T05:50:56.075Z,100.00
2024-02-14T05:53:22.665Z,100.00
2024-02-14T05:55:49.192Z,100.00
2024-02-14T05:58:16.305Z,100.00
2024-02-14T06:00:43.027Z,100.00
2024-02-14T06:03:09.700Z,100.00
2024-02-14T06:05:36.321Z,100.00
2024-02-14T06:08:04.350Z,100.00
2024-02-14T06:10:31.132Z,100.00
2024-02-14T06:12:58.025Z,100.00
2024-02-14T06:15:24.782Z,100.00
2024-02-14T06:17:51.624Z,100.00
2024-02-14T06:20:18.570Z,100.00
2024-02-14T06:22:50.665Z,100.00
2024-02-14T06:25:23.689Z,100.00
2024-02-14T06:27:51.238Z,100.00
2024-02-14T06:30:18.735Z,100.00
2024-02-14T06:32:46.113Z,100.00
2024-02-14T06:35:16.372Z,100.00
2024-02-14T06:37:48.821Z,100.00
2024-02-14T06:40:23.471Z,100.00
2024-02-14T06:42:51.899Z,100.00
2024-02-14T06:45:18.792Z,100.00
2024-02-14T06:47:45.399Z,100.00
2024-02-14T06:50:12.100Z,100.00
2024-02-14T06:52:38.655Z,100.00
2024-02-14T06:55:05.399Z,100.00
2024-02-14T06:57:31.917Z,100.00
2024-02-14T06:59:58.534Z,100.00
2024-02-14T07:02:29.255Z,100.00
2024-02-14T07:04:56.121Z,100.00
2024-02-14T07:07:22.684Z,100.00
2024-02-14T07:09:49.254Z,100.00
2024-02-14T07:12:15.853Z,100.00
2024-02-14T07:14:42.639Z,100.00
2024-02-14T07:17:09.295Z,100.00
2024-02-14T07:19:36.196Z,100.00
2024-02-14T07:22:02.784Z,100.00
2024-02-14T07:24:29.333Z,100.00
2024-02-14T07:26:55.887Z,100.00
2024-02-14T07:29:22.564Z,100.00
2024-02-14T07:31:49.168Z,100.00
2024-02-14T07:34:16.141Z,99.65
2024-02-14T07:36:47.209Z,99.49
2024-02-14T07:39:13.963Z,99.63
2024-02-14T07:41:40.635Z,99.34
2024-02-14T07:44:07.556Z,99.16
2024-02-14T07:46:34.211Z,99.21
2024-02-14T07:49:00.854Z,98.92
2024-02-14T07:51:29.901Z,98.76
2024-02-14T07:53:56.738Z,98.94
2024-02-14T07:56:23.541Z,98.63
2024-02-14T07:58:50.979Z,98.56
2024-02-14T08:01:17.636Z,98.56
2024-02-14T08:03:44.300Z,98.32
2024-02-14T08:06:11.018Z,98.23
2024-02-14T08:08:37.594Z,98.10
2024-02-14T08:11:04.347Z,98.04
2024-02-14T08:13:31.012Z,98.07
2024-02-14T08:15:57.580Z,98.10
2024-02-14T08:18:24.514Z,97.81
2024-02-14T08:20:51.474Z,97.89
2024-02-14T08:23:18.214Z,97.60
2024-02-14T08:25:44.808Z,97.52
2024-02-14T08:28:11.626Z,97.52
2024-02-14T08:30:39.074Z,97.37
2024-02-14T08:33:05.739Z,96.91
2024-02-14T08:35:33.908Z,96.75
2024-02-14T08:38:01.685Z,96.63
2024-02-14T08:40:28.714Z,96.50
2024-02-14T08:42:55.272Z,96.01
2024-02-14T08:45:21.817Z,95.58
2024-02-14T08:47:48.554Z,95.55
2024-02-14T08:50:15.462Z,94.82
2024-02-14T08:52:42.197Z,94.67
2024-02-14T08:55:15.430Z,94.47
2024-02-14T08:57:42.353Z,94.43
2024-02-14T09:00:11.631Z,93.90
2024-02-14T09:02:38.497Z,93.79
2024-02-14T09:05:07.088Z,93.57
2024-02-14T09:07:34.959Z,93.04
2024-02-14T09:10:01.572Z,92.94
2024-02-14T09:12:28.254Z,92.32
2024-02-14T09:14:54.894Z,91.48
2024-02-14T09:17:21.494Z,91.01
2024-02-14T09:19:48.480Z,91.35
2024-02-14T09:22:19.562Z,90.93
2024-02-14T09:24:46.130Z,90.40
2024-02-14T09:27:14.524Z,90.87
2024-02-14T09:29:42.120Z,90.25
2024-02-14T09:32:09.074Z,89.84
2024-02-14T09:34:36.116Z,89.83
2024-02-14T09:37:02.868Z,89.51
2024-02-14T09:39:29.427Z,89.35
2024-02-14T09:42:03.351Z,89.10
2024-02-14T09:44:30.096Z,88.96
2024-02-14T09:46:58.006Z,88.94
2024-02-14T09:49:25.728Z,88.47
2024-02-14T09:51:53.335Z,88.38
2024-02-14T09:54:22.400Z,88.63
2024-02-14T09:56:51.940Z,88.42
2024-02-14T09:59:19.122Z,88.50
2024-02-14T10:01:47.075Z,88.51
2024-02-14T10:04:14.146Z,88.50
2024-02-14T10:06:40.766Z,88.44
2024-02-14T10:09:08.972Z,88.38
2024-02-14T10:11:36.372Z,88.44
2024-02-14T10:14:05.520Z,88.30
2024-02-14T10:16:32.616Z,88.16
2024-02-14T10:18:59.612Z,88.55
2024-02-14T10:21:27.183Z,88.41
2024-02-14T10:23:54.405Z,88.91
2024-02-14T10:26:21.678Z,89.07
2024-02-14T10:28:50.401Z,89.30
2024-02-14T10:31:17.674Z,89.38
2024-02-14T10:33:44.798Z,89.20
2024-02-14T10:36:13.821Z,89.14
2024-02-14T10:38:41.186Z,89.26
2024-02-14T10:41:11.019Z,90.69
2024-02-14T10:43:40.205Z,92.41
2024-02-14T10:46:13.761Z,92.92
2024-02-14T10:48:40.956Z,92.58
2024-02-14T10:51:11.351Z,92.89
2024-02-14T10:53:43.412Z,92.79
2024-02-14T10:56:10.735Z,93.11
2024-02-14T10:58:37.928Z,93.88
2024-02-14T11:01:04.779Z,94.30
2024-02-14T11:03:32.267Z,94.42
2024-02-14T11:06:04.976Z,95.02
2024-02-14T11:08:33.373Z,94.38
2024-02-14T11:11:01.549Z,94.33
2024-02-14T11:13:30.427Z,94.33
2024-02-14T11:15:58.206Z,94.07
2024-02-14T11:18:32.005Z,93.79
2024-02-14T11:20:59.061Z,93.56
2024-02-14T11:23:27.566Z,93.76
2024-02-14T11:26:05.228Z,93.69
2024-02-14T11:28:32.043Z,92.93
2024-02-14T11:31:04.687Z,92.43
2024-02-14T11:33:32.062Z,92.39
2024-02-14T11:36:00.041Z,94.39
2024-02-14T11:38:27.413Z,95.17
2024-02-14T11:41:00.303Z,94.80
2024-02-14T11:43:28.062Z,95.43
2024-02-14T11:45:54.967Z,95.96
2024-02-14T11:48:22.552Z,96.15
2024-02-14T11:50:49.546Z,96.03
2024-02-14T11:53:20.300Z,95.97
2024-02-14T11:55:50.486Z,95.92
2024-02-14T11:58:19.081Z,95.49
2024-02-14T12:00:47.254Z,96.20
2024-02-14T12:03:23.072Z,96.81
2024-02-14T12:05:52.214Z,97.20
2024-02-14T12:08:19.399Z,97.58
2024-02-14T12:10:53.023Z,98.78
2024-02-14T12:13:22.315Z,100.00
2024-02-14T12:15:50.630Z,100.00
2024-02-14T12:18:19.628Z,100.00
2024-02-14T12:20:47.018Z,100.00
2024-02-14T12:23:22.511Z,100.00
2024-02-14T12:25:49.435Z,100.00
2024-02-14T12:28:20.443Z,100.00
2024-02-14T12:30:50.672Z,100.00
2024-02-14T12:33:18.158Z,100.00
2024-02-14T12:35:49.079Z,100.00
2024-02-14T12:38:17.926Z,100.00
2024-02-14T12:40:45.677Z,100.00
2024-02-14T12:43:13.219Z,100.00
2024-02-14T12:45:40.823Z,100.00
2024-02-14T12:48:11.899Z,100.00
2024-02-14T12:50:39.381Z,100.00
2024-02-14T12:53:07.835Z,100.00
2024-02-14T12:55:34.705Z,100.00
2024-02-14T12:58:01.928Z,100.00
2024-02-14T13:00:28.855Z,100.00
2024-02-14T13:02:55.628Z,100.00
2024-02-14T13:05:22.293Z,100.00
2024-02-14T13:07:48.927Z,100.00
2024-02-14T13:10:15.483Z,100.00
2024-02-14T13:12:44.688Z,100.00
2024-02-14T13:15:11.684Z,100.00
2024-02-14T13:17:38.960Z,100.00
2024-02-14T13:20:07.072Z,99.81
2024-02-14T13:22:34.098Z,99.59
2024-02-14T13:25:04.226Z,99.21
2024-02-14T13:27:30.797Z,99.31
2024-02-14T13:29:57.388Z,99.34
2024-02-14T13:32:24.012Z,99.24
2024-02-14T13:34:50.645Z,100.00
2024-02-14T13:37:17.567Z,100.00
2024-02-14T13:39:45.039Z,100.00
2024-02-14T13:42:11.718Z,100.00
2024-02-14T13:44:38.364Z,100.00
2024-02-14T13:47:05.184Z,100.00
2024-02-14T13:49:31.947Z,100.00
2024-02-14T13:51:59.362Z,100.00
2024-02-14T13:54:26.122Z,100.00
2024-02-14T13:56:53.267Z,100.00
2024-02-14T13:59:19.908Z,100.00
2024-02-14T14:01:48.081Z,100.00
2024-02-14T14:04:15.143Z,100.00
2024-02-14T14:06:42.162Z,100.00
2024-02-14T14:09:09.869Z,100.00
2024-02-14T14:11:36.532Z,100.00
2024-02-14T14:14:03.192Z,100.00
2024-02-14T14:16:29.755Z,100.00
2024-02-14T14:18:56.555Z,100.00
2024-02-14T14:21:23.380Z,100.00
2024-02-14T14:23:50.011Z,100.00
2024-02-14T14:26:16.864Z,100.00
2024-02-14T14:28:43.746Z,100.00
2024-02-14T14:31:12.978Z,100.00
2024-02-14T14:33:40.036Z,100.00
2024-02-14T14:36:07.554Z,100.00
2024-02-14T14:38:34.410Z,100.00
2024-02-14T14:41:01.055Z,100.00
2024-02-14T14:43:29.121Z,100.00
2024-02-14T14:45:58.090Z,100.00
2024-02-14T14:48:25.185Z,100.00
2024-02-14T14:50:51.973Z,100.00
2024-02-14T14:53:18.880Z,100.00
2024-02-14T14:55:58.730Z,100.00
2024-02-14T14:58:28.702Z,100.00
2024-02-14T15:00:57.128Z,100.00
2024-02-14T15:03:24.617Z,100.00
2024-02-14T15:05:51.564Z,100.00
2024-02-14T15:08:20.484Z,100.00
2024-02-14T15:10:47.201Z,100.00
2024-02-14T15:13:14.500Z,100.00
2024-02-14T15:15:41.209Z,100.00
2024-02-14T15:18:08.027Z,100.00
2024-02-14T15:20:37.285Z,100.00
2024-02-14T15:23:04.285Z,100.00
2024-02-14T15:25:30.935Z,100.00
2024-02-14T15:27:58.212Z,100.00
2024-02-14T15:30:44.512Z,100.00
2024-02-14T15:33:24.506Z,100.00
2024-02-14T15:35:55.804Z,100.00
2024-02-14T15:38:24.014Z,100.00
2024-02-14T15:40:58.408Z,100.00
2024-02-14T15:43:26.347Z,100.00
2024-02-14T15:45:53.156Z,100.00
2024-02-14T15:48:20.856Z,100.00
2024-02-14T15:50:48.428Z,100.00
2024-02-14T15:53:16.425Z,100.00
2024-02-14T15:55:43.710Z,100.00
2024-02-14T15:58:16.635Z,100.00
2024-02-14T16:00:43.174Z,100.00
2024-02-14T16:03:11.381Z,100.00
2024-02-14T16:05:38.321Z,100.00
2024-02-14T16:08:05.488Z,100.00
2024-02-14T16:10:32.045Z,100.00
2024-02-14T16:12:59.249Z,100.00
2024-02-14T16:15:26.060Z,100.00
2024-02-14T16:17:52.809Z,100.00
2024-02-14T16:20:22.797Z,100.00
2024-02-14T16:22:50.038Z,100.00
2024-02-14T16:25:16.735Z,100.00
2024-02-14T16:27:43.366Z,100.00
2024-02-14T16:30:10.320Z,100.00
2024-02-14T16:32:37.483Z,100.00
2024-02-14T16:35:05.992Z,100.00
2024-02-14T16:37:32.819Z,100.00
2024-02-14T16:39:59.730Z,100.00
2024-02-14T16:42:26.660Z,100.00
2024-02-14T16:44:53.741Z,100.00
2024-02-14T16:47:20.560Z,100.00
2024-02-14T16:49:47.189Z,100.00
2024-02-14T16:52:13.821Z,100.00
2024-02-14T16:54:40.423Z,100.00
2024-02-14T16:57:10.538Z,100.00
2024-02-14T16:59:38.685Z,100.00
2024-02-14T17:02:07.301Z,100.00
2024-02-14T17:04:35.068Z,100.00
2024-02-14T17:07:02.225Z,100.00
2024-02-14T17:09:29.087Z,100.00
2024-02-14T17:11:55.705Z,100.00
2024-02-14T17:14:27.243Z,100.00
2024-02-14T17:16:57.794Z,100.00
2024-02-14T17:19:25.562Z,100.00
2024-02-14T17:21:52.458Z,100.00
2024-02-14T17:24:19.614Z,100.00
2024-02-14T17:26:46.864Z,100.00
2024-02-14T17:29:13.790Z,100.00
2024-02-14T17:31:40.892Z,100.00
2024-02-14T17:34:07.886Z,100.00
2024-02-14T17:36:35.594Z,100.00
2024-02-14T17:39:06.236Z,100.00
2024-02-14T17:41:36.523Z,100.00
2024-02-14T17:44:04.302Z,100.00
2024-02-14T17:46:31.253Z,100.00
2024-02-14T17:48:57.952Z,100.00
2024-02-14T17:51:27.908Z,100.00
2024-02-14T17:53:55.203Z,100.00
2024-02-14T17:56:22.864Z,100.00
2024-02-14T17:58:49.461Z,100.00
2024-02-14T18:01:16.259Z,100.00
2024-02-14T18:03:42.910Z,100.00
2024-02-14T18:06:10.113Z,100.00
2024-02-14T18:08:37.063Z,100.00
2024-02-14T18:11:04.295Z,100.00
2024-02-14T18:13:31.447Z,100.00
2024-02-14T18:15:58.065Z,100.00
2024-02-14T18:18:24.813Z,100.00
2024-02-14T18:20:52.051Z,100.00
2024-02-14T18:23:19.125Z,100.00
2024-02-14T18:25:46.330Z,100.00
2024-02-14T18:28:13.067Z,100.00
2024-02-14T18:30:39.681Z,100.00
2024-02-14T18:33:12.293Z,100.00
2024-02-14T18:35:40.194Z,100.00
2024-02-14T18:38:09.845Z,100.00
2024-02-14T18:40:40.093Z,100.00
2024-02-14T18:43:07.490Z,100.00
2024-02-14T18:45:34.088Z,100.00
2024-02-14T18:48:01.009Z,100.00
2024-02-14T18:50:27.758Z,100.00
2024-02-14T18:52:55.060Z,100.00
2024-02-14T18:55:21.752Z,100.00
2024-02-14T18:57:48.834Z,100.00
2024-02-14T19:00:15.720Z,100.00
2024-02-14T19:02:43.923Z,100.00
2024-02-14T19:05:10.810Z,100.00
2024-02-14T19:07:40.413Z,100.00
2024-02-14T19:10:07.658Z,100.00
2024-02-14T19:12:34.288Z,100.00
2024-02-14T19:15:06.927Z,100.00
2024-02-14T19:17:35.277Z,100.00
2024-02-14T19:20:05.182Z,100.00
2024-02-14T19:22:33.384Z,100.00
2024-02-14T19:25:01.223Z,100.00
2024-02-14T19:27:28.245Z,100.00
2024-02-14T19:29:54.906Z,100.00
2024-02-14T19:32:21.640Z,100.00
2024-02-14T19:34:48.310Z,100.00
2024-02-14T19:37:14.914Z,100.00
2024-02-14T19:39:41.469Z,100.00
2024-02-14T19:42:08.876Z,100.00
2024-02-14T19:44:35.481Z,100.00
2024-02-14T19:47:02.110Z,100.00
2024-02-14T19:49:28.856Z,100.00
2024-02-14T19:51:55.991Z,100.00
2024-02-14T19:54:23.125Z,100.00
2024-02-14T19:56:50.782Z,100.00
2024-02-14T19:59:17.801Z,100.00
2024-02-14T20:01:44.923Z,100.00
2024-02-14T20:04:12.883Z,100.00
2024-02-14T20:06:40.551Z,100.00
2024-02-14T20:09:08.546Z,100.00
2024-02-14T20:11:35.322Z,100.00
2024-02-14T20:14:02.296Z,100.00
2024-02-14T20:16:29.032Z,100.00
2024-02-14T20:18:56.130Z,100.00
2024-02-14T20:21:24.325Z,100.00
2024-02-14T20:23:51.049Z,100.00
2024-02-14T20:26:17.988Z,100.00
2024-02-14T20:28:45.155Z,100.00
2024-02-14T20:31:11.881Z,100.00
2024-02-14T20:33:38.675Z,100.00
2024-02-14T20:36:06.283Z,100.00
2024-02-14T20:38:32.995Z,100.00
2024-02-14T20:41:05.754Z,100.00
2024-02-14T20:43:32.357Z,100.00
2024-02-14T20:45:58.941Z,100.00
2024-02-14T20:48:25.883Z,100.00
2024-02-14T20:50:52.666Z,100.00
2024-02-14T20:53:19.442Z,100.00
2024-02-14T20:55:46.522Z,100.00
2024-02-14T20:58:13.255Z,100.00
2024-02-14T21:00:40.792Z,100.00
2024-02-14T21:03:07.793Z,100.00
2024-02-14T21:05:34.647Z,100.00
2024-02-14T21:08:01.281Z,100.00
2024-02-14T21:10:28.892Z,100.00
2024-02-14T21:12:55.654Z,100.00
2024-02-14T21:15:22.239Z,100.00
2024-02-14T21:17:49.098Z,100.00
2024-02-14T21:20:16.030Z,100.00
2024-02-14T21:22:42.666Z,100.00
2024-02-14T21:25:11.605Z,100.00
2024-02-14T21:27:38.632Z,100.00
2024-02-14T21:30:07.160Z,100.00
2024-02-14T21:32:33.929Z,100.00
2024-02-14T21:35:00.577Z,100.00
2024-02-14T21:37:27.177Z,100.00
2024-02-14T21:39:53.756Z,100.00
2024-02-14T21:42:21.125Z,100.00
2024-02-14T21:44:47.774Z,100.00
2024-02-14T21:47:15.054Z,100.00
2024-02-14T21:49:43.393Z,100.00
2024-02-14T21:52:10.113Z,100.00
2024-02-14T21:54:37.546Z,100.00
2024-02-14T21:57:05.700Z,100.00
2024-02-14T21:59:32.409Z,100.00
2024-02-14T22:01:59.187Z,100.00
2024-02-14T22:04:26.003Z,100.00
2024-02-14T22:06:52.804Z,100.00
2024-02-14T22:09:21.966Z,100.00
2024-02-14T22:11:49.266Z,100.00
2024-02-14T22:14:16.130Z,100.00
2024-02-14T22:16:43.209Z,100.00
2024-02-14T22:19:11.875Z,100.00
2024-02-14T22:21:38.732Z,100.00
2024-02-14T22:24:06.389Z,100.00
2024-02-14T22:26:33.155Z,100.00
2024-02-14T22:28:59.974Z,100.00
2024-02-14T22:31:30.110Z,100.00
2024-02-14T22:33:58.075Z,100.00
2024-02-14T22:36:26.305Z,100.00
2024-02-14T22:38:53.445Z,100.00
2024-02-14T22:41:23.040Z,100.00
2024-02-14T22:43:53.980Z,100.00
2024-02-14T22:46:20.927Z,100.00
2024-02-14T22:48:48.407Z,100.00
2024-02-14T22:51:17.861Z,100.00
2024-02-14T22:53:44.457Z,100.00
2024-02-14T22:56:11.319Z,100.00
2024-02-14T22:58:39.275Z,100.00
2024-02-14T23:01:06.717Z,100.00
2024-02-14T23:03:33.762Z,100.00
2024-02-14T23:06:03.181Z,100.00
2024-02-14T23:08:29.782Z,100.00
2024-02-14T23:10:56.385Z,100.00
2024-02-14T23:13:23.007Z,100.00
2024-02-14T23:15:52.946Z,100.00
2024-02-14T23:18:20.703Z,100.00
2024-02-14T23:20:48.389Z,100.00
2024-02-14T23:23:15.360Z,100.00
2024-02-14T23:25:42.054Z,100.00
2024-02-14T23:28:08.627Z,100.00
2024-02-14T23:30:36.315Z,100.00
2024-02-14T23:33:03.566Z,100.00
2024-02-14T23:35:30.394Z,100.00
2024-02-14T23:37:57.626Z,100.00
2024-02-14T23:40:24.370Z,100.00
2024-02-14T23:42:50.918Z,100.00
2024-02-14T23:45:17.721Z,100.00
2024-02-14T23:47:44.407Z,100.00
2024-02-14T23:50:11.901Z,100.00
2024-02-14T23:52:39.840Z,100.00
2024-02-14T23:55:06.915Z,100.00
2024-02-14T23:57:33.557Z,100.00
